createdAt,value
2019-01-14T00:00:15.288Z,100.00
2019-01-14T00:03:19.001Z,100.00
2019-01-14T00:06:22.552Z,100.00
2019-01-14T00:09:31.079Z,100.00
2019-01-14T00:12:29.481Z,100.00
2019-01-14T00:15:32.913Z,100.00
2019-01-14T00:18:36.432Z,100.00
2019-01-14T00:21:39.903Z,100.00
2019-01-14T00:24:43.354Z,100.00
2019-01-14T00:27:46.875Z,100.00
2019-01-14T00:30:50.331Z,100.00
2019-01-14T00:33:53.903Z,100.00
2019-01-14T00:36:57.367Z,98.39
2019-01-14T00:40:00.839Z,97.62
2019-01-14T00:43:04.369Z,98.37
2019-01-14T00:46:07.845Z,97.75
2019-01-14T00:49:11.347Z,97.33
2019-01-14T00:52:14.877Z,96.23
2019-01-14T00:55:18.312Z,97.01
2019-01-14T00:58:21.762Z,96.77
2019-01-14T01:01:25.303Z,96.49
2019-01-14T01:04:28.747Z,96.73
2019-01-14T01:07:32.303Z,95.25
2019-01-14T01:10:35.757Z,95.79
2019-01-14T01:13:39.314Z,94.51
2019-01-14T01:16:42.855Z,93.75
2019-01-14T01:19:46.223Z,93.14
2019-01-14T01:22:50.690Z,92.98
2019-01-14T01:25:54.091Z,92.88
2019-01-14T01:28:57.498Z,92.94
2019-01-14T01:32:00.940Z,93.25
2019-01-14T01:35:05.106Z,92.79
2019-01-14T01:38:08.480Z,91.27
2019-01-14T01:41:11.928Z,90.33
2019-01-14T01:44:15.398Z,91.28
2019-01-14T01:47:18.770Z,90.80
2019-01-14T01:50:22.216Z,91.00
2019-01-14T01:53:25.588Z,90.73
2019-01-14T01:56:28.988Z,89.85
2019-01-14T01:59:32.402Z,90.00
2019-01-14T02:02:35.787Z,89.65
2019-01-14T02:05:39.237Z,88.63
2019-01-14T02:08:42.719Z,88.90
2019-01-14T02:11:46.140Z,89.17
2019-01-14T02:14:49.636Z,88.63
2019-01-14T02:17:53.154Z,88.23
2019-01-14T02:20:56.689Z,89.22
2019-01-14T02:24:00.143Z,89.55
2019-01-14T02:27:03.619Z,89.38
2019-01-14T02:30:08.927Z,89.62
2019-01-14T02:33:12.310Z,89.63
2019-01-14T02:36:15.801Z,89.97
2019-01-14T02:39:19.238Z,90.50
2019-01-14T02:42:22.709Z,89.91
2019-01-14T02:45:26.217Z,90.09
2019-01-14T02:48:29.675Z,89.63
2019-01-14T02:51:33.151Z,88.36
2019-01-14T02:54:36.568Z,88.28
2019-01-14T02:57:40.044Z,87.80
2019-01-14T03:00:43.470Z,87.03
2019-01-14T03:03:46.879Z,87.05
2019-01-14T03:06:57.582Z,86.88
2019-01-14T03:09:53.985Z,86.63
2019-01-14T03:12:57.525Z,86.84
2019-01-14T03:16:00.960Z,86.41
2019-01-14T03:19:04.526Z,85.95
2019-01-14T03:22:08.056Z,84.24
2019-01-14T03:25:12.001Z,84.36
2019-01-14T03:28:15.524Z,82.97
2019-01-14T03:31:19.050Z,82.89
2019-01-14T03:34:22.580Z,82.33
2019-01-14T03:37:26.095Z,82.38
2019-01-14T03:40:29.616Z,81.63
2019-01-14T03:43:33.229Z,81.86
2019-01-14T03:46:36.736Z,82.17
2019-01-14T03:49:40.236Z,83.63
2019-01-14T03:52:43.844Z,84.21
2019-01-14T03:55:47.421Z,84.85
2019-01-14T03:58:50.991Z,85.33
2019-01-14T04:01:54.410Z,86.29
2019-01-14T04:04:57.978Z,86.00
2019-01-14T04:08:01.483Z,86.29
2019-01-14T04:11:05.001Z,86.89
2019-01-14T04:14:08.425Z,86.61
2019-01-14T04:17:11.965Z,86.18
2019-01-14T04:20:16.593Z,86.56
2019-01-14T04:23:20.049Z,86.76
2019-01-14T04:26:23.600Z,88.35
2019-01-14T04:29:27.054Z,87.40
2019-01-14T04:32:30.601Z,87.77
2019-01-14T04:35:34.050Z,89.53
2019-01-14T04:38:37.439Z,88.20
2019-01-14T04:41:40.881Z,88.48
2019-01-14T04:44:45.419Z,89.07
2019-01-14T04:47:48.927Z,89.50
2019-01-14T04:50:52.390Z,88.26
2019-01-14T04:53:55.935Z,88.13
2019-01-14T04:56:59.412Z,87.45
2019-01-14T05:00:02.948Z,88.62
2019-01-14T05:03:06.432Z,89.00
2019-01-14T05:06:09.913Z,88.43
2019-01-14T05:09:13.508Z,87.21
2019-01-14T05:12:16.906Z,87.23
2019-01-14T05:15:20.377Z,87.71
2019-01-14T05:18:23.845Z,86.60
2019-01-14T05:21:27.256Z,86.46
2019-01-14T05:24:30.745Z,85.98
2019-01-14T05:27:34.243Z,85.47
2019-01-14T05:30:37.725Z,85.44
2019-01-14T05:33:41.237Z,85.25
2019-01-14T05:36:44.741Z,83.08
2019-01-14T05:39:48.207Z,82.50
2019-01-14T05:42:51.654Z,81.64
2019-01-14T05:45:55.159Z,82.88
2019-01-14T05:48:58.698Z,82.88
2019-01-14T05:52:02.182Z,82.51
2019-01-14T05:55:06.227Z,83.78
2019-01-14T05:58:09.781Z,83.38
2019-01-14T06:01:13.271Z,83.39
2019-01-14T06:04:16.736Z,83.82
2019-01-14T06:07:20.159Z,85.07
2019-01-14T06:10:23.524Z,84.16
2019-01-14T06:13:27.050Z,85.04
2019-01-14T06:16:30.492Z,84.51
2019-01-14T06:19:34.062Z,85.37
2019-01-14T06:22:37.554Z,84.13
2019-01-14T06:25:41.050Z,83.61
2019-01-14T06:28:44.580Z,83.75
2019-01-14T06:31:47.972Z,83.68
2019-01-14T06:34:51.372Z,83.52
2019-01-14T06:37:54.927Z,83.33
2019-01-14T06:40:58.519Z,83.05
2019-01-14T06:44:02.091Z,83.28
2019-01-14T06:47:05.547Z,82.77
2019-01-14T06:50:10.999Z,82.00
2019-01-14T06:53:14.496Z,81.51
2019-01-14T06:56:18.214Z,81.58
2019-01-14T06:59:21.633Z,81.69
2019-01-14T07:02:25.149Z,81.75
2019-01-14T07:05:28.609Z,81.96
2019-01-14T07:08:32.092Z,82.07
2019-01-14T07:11:35.724Z,81.90
2019-01-14T07:14:39.299Z,81.89
2019-01-14T07:17:42.894Z,82.39
2019-01-14T07:20:46.469Z,82.15
2019-01-14T07:23:49.935Z,83.67
2019-01-14T07:26:53.483Z,83.54
2019-01-14T07:29:56.948Z,83.35
2019-01-14T07:33:00.463Z,83.55
2019-01-14T07:36:04.127Z,83.15
2019-01-14T07:39:08.785Z,84.41
2019-01-14T07:42:12.325Z,83.83
2019-01-14T07:45:16.446Z,83.98
2019-01-14T07:48:19.855Z,84.06
2019-01-14T07:51:23.283Z,83.30
2019-01-14T07:54:26.680Z,83.96
2019-01-14T07:57:30.164Z,84.23
2019-01-14T08:00:33.634Z,84.89
2019-01-14T08:03:37.158Z,84.85
2019-01-14T08:06:40.619Z,84.77
2019-01-14T08:09:44.093Z,84.62
2019-01-14T08:12:47.511Z,84.11
2019-01-14T08:15:51.178Z,85.02
2019-01-14T08:18:54.599Z,85.34
2019-01-14T08:21:58.095Z,86.77
2019-01-14T08:25:02.513Z,88.41
2019-01-14T08:28:05.980Z,88.56
2019-01-14T08:31:09.457Z,88.73
2019-01-14T08:34:12.985Z,89.87
2019-01-14T08:37:16.463Z,89.75
2019-01-14T08:40:20.058Z,88.79
2019-01-14T08:43:23.623Z,87.87
2019-01-14T08:46:27.200Z,87.09
2019-01-14T08:49:30.685Z,87.60
2019-01-14T08:52:34.173Z,87.20
2019-01-14T08:55:37.886Z,87.22
2019-01-14T08:58:42.338Z,86.12
2019-01-14T09:01:45.825Z,86.88
2019-01-14T09:04:49.984Z,87.00
2019-01-14T09:07:53.561Z,87.73
2019-01-14T09:10:57.049Z,87.79
2019-01-14T09:14:00.607Z,88.88
2019-01-14T09:17:05.258Z,88.85
2019-01-14T09:20:12.100Z,87.94
2019-01-14T09:23:15.562Z,88.36
2019-01-14T09:26:20.105Z,88.83
2019-01-14T09:29:23.670Z,88.91
2019-01-14T09:35:58.758Z,87.59
2019-01-14T09:39:08.838Z,86.90
2019-01-14T09:42:12.504Z,83.91
2019-01-14T09:45:16.020Z,85.04
2019-01-14T09:48:20.649Z,84.36
2019-01-14T09:51:25.225Z,82.62
2019-01-14T09:54:28.834Z,82.99
2019-01-14T09:57:32.362Z,82.93
2019-01-14T10:00:36.962Z,81.21
2019-01-14T10:03:40.548Z,79.77
2019-01-14T10:06:44.101Z,79.86
2019-01-14T10:09:47.705Z,80.56
2019-01-14T10:12:51.147Z,80.86
2019-01-14T10:15:54.668Z,80.29
2019-01-14T10:18:58.329Z,80.87
2019-01-14T10:22:01.854Z,81.25
2019-01-14T10:25:06.205Z,82.31
2019-01-14T10:28:09.724Z,81.45
2019-01-14T10:31:13.169Z,81.07
2019-01-14T10:34:16.725Z,80.51
2019-01-14T10:37:22.892Z,80.28
2019-01-14T10:40:23.899Z,80.84
2019-01-14T10:43:27.443Z,78.24
2019-01-14T10:46:30.950Z,78.60
2019-01-14T10:49:34.528Z,78.94
2019-01-14T10:52:38.090Z,78.70
2019-01-14T10:55:41.590Z,78.67
2019-01-14T10:58:45.080Z,78.42
2019-01-14T11:01:48.570Z,78.06
2019-01-14T11:04:52.147Z,78.15
2019-01-14T11:07:55.680Z,76.69
2019-01-14T11:10:59.202Z,76.02
2019-01-14T11:14:02.679Z,76.51
2019-01-14T11:17:06.200Z,77.44
2019-01-14T11:20:13.228Z,77.72
2019-01-14T11:23:16.794Z,77.78
2019-01-14T11:26:20.421Z,76.25
2019-01-14T11:29:23.880Z,77.45
2019-01-14T11:32:27.373Z,77.95
2019-01-14T11:35:30.823Z,76.22
2019-01-14T11:38:39.267Z,76.76
2019-01-14T11:41:42.856Z,78.04
2019-01-14T11:44:46.249Z,77.22
2019-01-14T11:47:49.652Z,77.03
2019-01-14T11:50:53.080Z,78.28
2019-01-14T11:53:56.548Z,76.87
2019-01-14T11:56:59.927Z,80.13
2019-01-14T12:00:03.522Z,87.22
2019-01-14T12:03:08.525Z,92.96
2019-01-14T12:06:10.481Z,98.35
2019-01-14T12:09:14.026Z,100.00
2019-01-14T12:12:17.484Z,100.00
2019-01-14T12:15:23.017Z,100.00
2019-01-14T12:18:26.426Z,100.00
2019-01-14T12:21:29.920Z,100.00
2019-01-14T12:24:33.322Z,100.00
2019-01-14T12:27:36.821Z,100.00
2019-01-14T12:30:41.732Z,100.00
2019-01-14T12:33:44.044Z,100.00
2019-01-14T12:36:47.540Z,100.00
2019-01-14T12:39:50.942Z,100.00
2019-01-14T12:42:54.671Z,100.00
2019-01-14T12:45:58.145Z,100.00
2019-01-14T12:49:01.522Z,100.00
2019-01-14T12:52:05.106Z,100.00
2019-01-14T12:55:09.696Z,100.00
2019-01-14T12:58:13.164Z,100.00
2019-01-14T13:01:16.606Z,100.00
2019-01-14T13:04:20.057Z,100.00
2019-01-14T13:07:23.481Z,100.00
2019-01-14T13:10:26.958Z,100.00
2019-01-14T13:13:30.405Z,100.00
2019-01-14T13:16:33.775Z,100.00
2019-01-14T13:19:37.228Z,100.00
2019-01-14T13:22:40.760Z,100.00
2019-01-14T13:25:44.170Z,100.00
2019-01-14T13:28:47.664Z,100.00
2019-01-14T13:31:51.110Z,100.00
2019-01-14T13:34:54.607Z,100.00
2019-01-14T13:37:58.264Z,100.00
2019-01-14T13:41:01.776Z,100.00
2019-01-14T13:44:05.263Z,100.00
2019-01-14T13:47:08.710Z,100.00
2019-01-14T13:50:13.730Z,99.84
2019-01-14T13:53:17.186Z,99.44
2019-01-14T13:56:20.531Z,99.21
2019-01-14T13:59:23.946Z,99.33
2019-01-14T14:02:27.324Z,98.84
2019-01-14T14:05:30.738Z,97.67
2019-01-14T14:08:34.124Z,96.51
2019-01-14T14:11:37.541Z,97.13
2019-01-14T14:14:40.923Z,96.41
2019-01-14T14:17:44.369Z,96.30
2019-01-14T14:20:47.797Z,93.30
2019-01-14T14:24:02.260Z,91.88
2019-01-14T14:27:05.813Z,91.63
2019-01-14T14:30:15.232Z,90.79
2019-01-14T14:33:18.746Z,90.16
2019-01-14T14:36:22.262Z,88.80
2019-01-14T14:39:25.743Z,88.71
2019-01-14T14:42:29.243Z,87.33
2019-01-14T14:45:32.825Z,85.92
2019-01-14T14:48:36.369Z,85.28
2019-01-14T14:51:39.890Z,85.12
2019-01-14T14:54:43.400Z,86.12
2019-01-14T14:57:46.947Z,87.19
2019-01-14T15:00:50.495Z,87.29
2019-01-14T15:03:53.967Z,87.41
2019-01-14T15:06:57.511Z,88.17
2019-01-14T15:10:00.976Z,88.95
2019-01-14T15:13:04.719Z,89.94
2019-01-14T15:16:09.426Z,89.15
2019-01-14T15:19:12.942Z,89.72
2019-01-14T15:22:16.394Z,88.86
2019-01-14T15:25:20.472Z,89.94
2019-01-14T15:28:24.074Z,90.68
2019-01-14T15:31:27.753Z,90.82
2019-01-14T15:34:33.163Z,90.10
2019-01-14T15:37:36.412Z,88.36
2019-01-14T15:40:39.902Z,88.47
2019-01-14T15:43:46.249Z,87.01
2019-01-14T15:46:49.771Z,87.22
2019-01-14T15:49:53.296Z,88.28
2019-01-14T15:52:56.819Z,87.73
2019-01-14T15:56:00.294Z,87.89
2019-01-14T15:59:03.804Z,87.10
2019-01-14T16:02:07.424Z,88.39
2019-01-14T16:05:11.092Z,88.78
2019-01-14T16:08:14.670Z,89.85
2019-01-14T16:11:18.168Z,89.21
2019-01-14T16:14:21.669Z,89.16
2019-01-14T16:17:25.221Z,89.54
2019-01-14T16:20:28.746Z,89.23
2019-01-14T16:23:32.270Z,89.35
2019-01-14T16:26:35.724Z,89.43
2019-01-14T16:29:39.306Z,89.44
2019-01-14T16:32:42.960Z,89.14
2019-01-14T16:35:46.400Z,89.85
2019-01-14T16:38:49.858Z,90.78
2019-01-14T16:41:53.395Z,90.70
2019-01-14T16:44:56.944Z,91.13
2019-01-14T16:48:00.549Z,90.60
2019-01-14T16:51:04.143Z,88.75
2019-01-14T16:54:07.651Z,87.98
2019-01-14T16:57:11.288Z,87.77
2019-01-14T17:00:17.056Z,87.39
2019-01-14T17:03:22.564Z,87.14
2019-01-14T17:06:26.151Z,86.83
2019-01-14T17:09:29.731Z,86.91
2019-01-14T17:12:33.229Z,85.32
2019-01-14T17:15:36.700Z,84.86
2019-01-14T17:18:40.260Z,84.87
2019-01-14T17:21:43.713Z,83.95
2019-01-14T17:24:47.237Z,84.12
2019-01-14T17:27:50.791Z,85.06
2019-01-14T17:30:54.354Z,84.77
2019-01-14T17:33:57.868Z,85.79
2019-01-14T17:37:02.031Z,84.79
2019-01-14T17:40:08.165Z,84.94
2019-01-14T17:43:11.629Z,85.45
2019-01-14T17:46:15.984Z,85.29
2019-01-14T17:49:19.537Z,85.50
2019-01-14T17:52:23.320Z,84.32
2019-01-14T17:55:26.918Z,84.25
2019-01-14T17:58:30.639Z,84.39
2019-01-14T18:01:34.139Z,83.77
2019-01-14T18:04:37.930Z,81.91
2019-01-14T18:07:42.171Z,82.11
2019-01-14T18:14:16.285Z,81.98
2019-01-14T18:17:19.878Z,81.35
2019-01-14T18:20:23.529Z,82.30
2019-01-14T18:23:27.138Z,82.01
2019-01-14T18:26:30.679Z,81.49
2019-01-14T18:29:34.220Z,80.20
2019-01-14T18:32:37.843Z,80.06
2019-01-14T18:35:41.455Z,79.73
2019-01-14T18:38:45.013Z,79.05
2019-01-14T18:41:48.510Z,78.96
2019-01-14T18:44:51.960Z,78.92
2019-01-14T18:47:55.558Z,78.65
2019-01-14T18:50:59.031Z,79.17
2019-01-14T18:54:02.467Z,79.33
2019-01-14T18:57:06.083Z,79.31
2019-01-14T19:00:12.649Z,79.89
2019-01-14T19:03:16.103Z,79.34
2019-01-14T19:06:19.492Z,80.18
2019-01-14T19:09:22.925Z,80.34
2019-01-14T19:12:26.296Z,79.35
2019-01-14T19:15:29.861Z,79.61
2019-01-14T19:18:33.338Z,80.18
2019-01-14T19:21:38.038Z,80.36
2019-01-14T19:24:41.601Z,80.34
2019-01-14T19:31:16.380Z,80.73
2019-01-14T19:34:22.135Z,81.14
2019-01-14T19:37:27.373Z,81.02
2019-01-14T19:40:30.984Z,81.21
2019-01-14T19:43:34.658Z,81.01
2019-01-14T19:46:38.057Z,81.58
2019-01-14T19:49:41.605Z,81.36
2019-01-14T19:52:45.375Z,81.27
2019-01-14T19:55:50.140Z,82.20
2019-01-14T19:58:56.282Z,81.91
2019-01-14T20:01:59.812Z,82.61
2019-01-14T20:05:04.800Z,83.40
2019-01-14T20:08:08.306Z,84.16
2019-01-14T20:11:11.816Z,83.88
2019-01-14T20:14:15.266Z,83.27
2019-01-14T20:17:18.764Z,84.63
2019-01-14T20:20:22.328Z,84.93
2019-01-14T20:23:25.842Z,85.39
2019-01-14T20:26:30.314Z,85.53
2019-01-14T20:29:34.355Z,85.32
2019-01-14T20:32:37.869Z,85.07
2019-01-14T20:35:41.628Z,84.49
2019-01-14T20:38:48.720Z,83.25
2019-01-14T20:41:54.028Z,83.08
2019-01-14T20:44:57.513Z,82.77
2019-01-14T20:48:00.962Z,82.88
2019-01-14T20:51:05.627Z,82.90
2019-01-14T20:54:07.899Z,82.59
2019-01-14T20:57:11.391Z,82.70
2019-01-14T21:00:16.979Z,82.11
2019-01-14T21:03:20.447Z,82.70
2019-01-14T21:06:24.000Z,82.27
2019-01-14T21:09:27.431Z,82.33
2019-01-14T21:12:30.909Z,82.67
2019-01-14T21:15:34.489Z,84.04
2019-01-14T21:18:37.934Z,85.24
2019-01-14T21:21:41.434Z,85.24
2019-01-14T21:24:44.844Z,86.20
2019-01-14T21:27:48.333Z,86.32
2019-01-14T21:30:51.748Z,87.25
2019-01-14T21:33:55.199Z,87.70
2019-01-14T21:36:58.650Z,87.53
2019-01-14T21:40:02.314Z,88.14
2019-01-14T21:46:06.360Z,87.99
2019-01-14T21:49:09.876Z,88.71
2019-01-14T21:52:13.310Z,89.25
2019-01-14T21:55:20.136Z,89.81
2019-01-14T21:58:23.600Z,90.50
2019-01-14T22:01:27.181Z,91.49
2019-01-14T22:04:30.673Z,91.33
2019-01-14T22:07:34.187Z,91.10
2019-01-14T22:10:38.603Z,91.45
2019-01-14T22:13:42.178Z,91.47
2019-01-14T22:16:45.796Z,90.65
2019-01-14T22:19:49.426Z,90.16
2019-01-14T22:22:52.943Z,89.71
2019-01-14T22:25:56.578Z,88.10
2019-01-14T22:32:36.575Z,85.86
2019-01-14T22:35:40.164Z,85.17
2019-01-14T22:38:43.664Z,84.07
2019-01-14T22:41:48.307Z,84.20
2019-01-14T22:44:51.812Z,84.45
2019-01-14T22:47:55.312Z,85.61
2019-01-14T22:50:59.805Z,86.65
2019-01-14T22:54:03.331Z,87.12
2019-01-14T22:57:06.923Z,87.74
2019-01-14T23:01:19.782Z,87.89
2019-01-14T23:04:23.280Z,87.13
2019-01-14T23:07:26.886Z,86.75
2019-01-14T23:10:30.392Z,86.75
2019-01-14T23:13:33.972Z,85.60
2019-01-14T23:16:37.588Z,85.10
2019-01-14T23:19:41.111Z,84.42
2019-01-14T23:22:44.696Z,85.21
2019-01-14T23:25:48.208Z,84.90
2019-01-14T23:28:51.758Z,85.52
2019-01-14T23:31:55.424Z,85.00
2019-01-14T23:34:59.016Z,83.79
2019-01-14T23:38:02.643Z,84.01
2019-01-14T23:41:06.221Z,83.38
2019-01-14T23:44:10.805Z,83.76
2019-01-14T23:47:14.378Z,84.06
2019-01-14T23:50:17.985Z,84.94
2019-01-14T23:53:21.582Z,85.69
2019-01-14T23:56:25.365Z,85.88
2019-01-14T23:59:29.062Z,85.63
